METAR Data
IDs: Format: Raw Decoded Include TAF

Data at: 0703 UTC 23 Feb 2019

KELP 230651Z 26024G37KT 10SM FEW020 FEW080 03/M02 A2996 RMK AO2 PK WND 26037/0555 SLP119 T00281017 402060022
KELP 230551Z 26023G32KT 10SM FEW025 BKN032 BKN100 03/M02 A2996 RMK AO2 PK WND 26032/0541 SLP119 CLDS TPG MTNS OBSCD W-NW 60045 T00331022 10106 20028 51026
KELP 230451Z 26021G28KT 10SM FEW010 BKN035 OVC090 03/M01 A2994 RMK AO2 PK WND 25028/0444 SLP117 CLDS TPG MTNS OBSCD W-NW T00331006
KELP 230351Z COR 26016G22KT 10SM SCT010 BKN030 OVC070 04/M01 A2990 RMK AO2 PK WND 25031/0309 RAE34SNB09E34 SLP106 CLDS TPG MTNS W-NW P0000 T00391006
KELP 230251Z 26017G30KT 10SM -RA SCT015 BKN030 OVC060 04/00 A2988 RMK AO2 PK WND 27034/0154 SNB26E50 PRESRR SLP100 CLDS TPG MTNS OBSCD SW-NW P0045 60045 T00390000 53064 $
KELP 230218Z 29021G33KT 4SM -RA SCT020 BKN040 OVC100 03/01 A2984 RMK AO2 PK WND 27034/0154 PRESRR BLDU ALQDS MTNS OBSCD SW-NW P0001 T00330006 $
KELP 230151Z 27024G37KT 10SM -RA SCT020 BKN080 OVC140 04/01 A2978 RMK AO2 PK WND 29046/0123 RAB29 SLP069 BLDU ALQDS CLDS TPG MTNS W-NW P0000 T00390006 $
KELP 230051Z 28028G38KT 10SM SCT025 SCT100 BKN180 08/00 A2971 RMK AO2 PK WND 28043/0034 SLP042 BLDU ALQDS CLDS TPG MTNS W-NW T00830000
KELP 222351Z 28025G39KT 5SM BLDU SCT100 11/00 A2966 RMK AO2 PK WND 22044/2306 WSHFT 2316 SLP020 BLDU ALQDS MTNS PTLY OBSCD SW-NW T01060000 10206 20106 55002
KELP 222251Z 21028G43KT 2 1/2SM BLDU SCT000 SCT100 19/M10 A2961 RMK AO2 PK WND 21043/2248 SLP989 BLDU SCT000 BLDU ALQDS MTNS OBSCD SW-NW T01941100
KELP 222228Z 23031G39KT 5SM BLDU FEW000 SCT100 20/M09 A2962 RMK AO2 PK WND 23039/2227 BLDU FEW000 BLDU ALQDS MTNS OBSCD SW-NW T02001089
KELP 222151Z 22018G33KT 6SM BLDU SCT100 20/M07 A2962 RMK AO2 PK WND 22035/2138 SLP989 BLDU ALQDS MTNS PTLY OBSCD SW-NW T02001072
KELP 222051Z 18019G27KT 7SM SCT090 18/M05 A2967 RMK AO2 PK WND 18031/2009 PRESFR SLP006 PRHZ ALQDS T01831050 58047
KELP 221951Z 19016KT 10SM SCT090 17/M05 A2973 RMK AO2 SLP027 T01671050
KELP 221851Z 20017G23KT 10SM SCT085 16/M06 A2979 RMK AO2 SLP047 T01611056
KELP 221751Z 16010KT 10SM FEW100 14/M09 A2983 RMK AO2 SLP062 T01391089 10139 20022 58009
KELP 221651Z 16008KT 10SM FEW090 11/M09 A2984 RMK AO2 SLP073 T01061094
KELP 221551Z 17006KT 10SM FEW090 08/M09 A2986 RMK AO2 SLP077 T00781094
KELP 221451Z 20005KT 10SM FEW070 06/M09 A2985 RMK AO2 SLP081 T00561089 51009
KELP 221351Z 22004KT 10SM FEW070 03/M08 A2985 RMK AO2 SLP079 T00331083
KELP 221251Z 00000KT 10SM FEW075 FEW250 03/M09 A2984 RMK AO2 SLP076 T00281094
KELP 221151Z 00000KT 10SM FEW075 FEW250 04/M09 A2983 RMK AO2 SLP067 T00391089 10106 20028 53004
KELP 221051Z 09010KT 10SM FEW250 03/M09 A2982 RMK AO2 SLP066 T00331094
KELP 220951Z 10009KT 10SM FEW240 05/M09 A2982 RMK AO2 SLP061 T00501089
KELP 220851Z VRB03KT 10SM FEW240 08/M08 A2981 RMK AO2 SLP056 T00781078 53003
KELP 220751Z 24006KT 10SM FEW130 09/M09 A2981 RMK AO2 SLP053 T00941089
KELP 220651Z 25008KT 10SM FEW120 10/M09 A2980 RMK AO2 SLP051 T01001094 401891006
KELP 220551Z 25012KT 10SM FEW120 11/M11 A2980 RMK AO2 SLP055 T01061111 10172 20106 51018
KELP 220451Z 26011KT 10SM FEW120 12/M13 A2979 RMK AO2 SLP054 T01171128
KELP 220351Z 27014KT 10SM FEW120 13/M15 A2976 RMK AO2 SLP046 T01281150
KELP 220251Z 27010KT 10SM FEW120 13/M14 A2974 RMK AO2 SLP044 T01331144 53022
KELP 220151Z 30009KT 10SM FEW130 14/M16 A2971 RMK AO2 SLP036 T01441156
KELP 220051Z 26011KT 10SM FEW130 16/M16 A2969 RMK AO2 SLP023 T01611156
KELP 212351Z VRB04KT 10SM FEW130 17/M12 A2967 RMK AO2 SLP017 T01721122 10189 20133 55003
KELP 212251Z 26010KT 10SM FEW130 18/M09 A2967 RMK AO2 SLP014 ACSL DSNT SW-W T01781094
KELP 212151Z 22008G14KT 10SM FEW120 FEW180 18/M10 A2966 RMK AO2 PK WND 21032/2109 SLP008 ACSL DSNT SW-NW T01831100
KELP 212051Z 21023G30KT 10SM FEW110 FEW170 18/M11 A2968 RMK AO2 PK WND 21032/2036 SLP015 T01831106 58026
KELP 211951Z 23019G26KT 10SM FEW110 FEW170 17/M09 A2971 RMK AO2 PK WND 24029/1922 SLP024 T01721089